sensor_id;sensor_type;location;lat;lon;timestamp;pressure;altitude;pressure_sealevel;temperature;humidity
7586;BME280;12459;42.646;23.292;2023-03-17T00:14:57;93484.00;;;0.97;100.00
7586;BME280;12459;42.646;23.292;2023-03-17T00:29:59;93302.97;;;-0.36;100.00
7586;BME280;12459;42.646;23.292;2023-03-17T00:45:01;93359.78;;;0.13;100.00
7586;BME280;12459;42.646;23.292;2023-03-17T01:00:04;93856.72;;;3.64;100.00
7586;BME280;12459;42.646;23.292;2023-03-17T01:15:08;93737.28;;;2.65;100.00
7586;BME280;12459;42.646;23.292;2023-03-17T02:01:00;93605.25;;;1.79;100.00
7586;BME280;12459;42.646;23.292;2023-03-17T02:16:02;93698.78;;;2.29;100.00
7586;BME280;12459;42.646;23.292;2023-03-17T02:31:04;93553.91;;;1.57;100.00
7586;BME280;12459;42.646;23.292;2023-03-17T02:46:06;93814.75;;;2.85;100.00
7586;BME280;12459;42.646;23.292;2023-03-17T03:01:08;93752.63;;;2.21;100.00
7586;BME280;12459;42.646;23.292;2023-03-17T03:16:10;93773.91;;;2.28;100.00
7586;BME280;12459;42.646;23.292;2023-03-17T03:31:12;93942.16;;;3.57;100.00
7586;BME280;12459;42.646;23.292;2023-03-17T03:46:14;93763.19;;;2.21;100.00
7586;BME280;12459;42.646;23.292;2023-03-17T04:01:16;93748.31;;;1.81;100.00
7586;BME280;12459;42.646;23.292;2023-03-17T04:16:18;93848.81;;;2.51;100.00
7586;BME280;12459;42.646;23.292;2023-03-17T04:31:20;93975.50;;;3.23;100.00
7586;BME280;12459;42.646;23.292;2023-03-17T04:46:22;93900.94;;;2.67;100.00
7586;BME280;12459;42.646;23.292;2023-03-17T05:01:24;93938.44;;;2.88;100.00
7586;BME280;12459;42.646;23.292;2023-03-17T05:16:26;93951.47;;;2.46;100.00
7586;BME280;12459;42.646;23.292;2023-03-17T05:31:28;93695.56;;;1.18;100.00
7586;BME280;12459;42.646;23.292;2023-03-17T05:46:31;93668.63;;;0.81;100.00
7586;BME280;12459;42.646;23.292;2023-03-17T06:01:33;93719.47;;;1.57;100.00
7586;BME280;12459;42.646;23.292;2023-03-17T06:16:34;93797.56;;;1.89;100.00
7586;BME280;12459;42.646;23.292;2023-03-17T06:31:38;93914.34;;;2.42;100.00
7586;BME280;12459;42.646;23.292;2023-03-17T06:46:40;94113.84;;;4.22;100.00
7586;BME280;12459;42.646;23.292;2023-03-17T07:01:41;93873.38;;;2.68;100.00
7586;BME280;12459;42.646;23.292;2023-03-17T07:16:43;94108.00;;;4.16;100.00
7586;BME280;12459;42.646;23.292;2023-03-17T07:31:45;93921.78;;;3.61;100.00
7586;BME280;12459;42.646;23.292;2023-03-17T07:46:48;94169.13;;;4.58;100.00
7586;BME280;12459;42.646;23.292;2023-03-17T08:01:49;94157.84;;;4.84;100.00
7586;BME280;12459;42.646;23.292;2023-03-17T08:16:52;93981.56;;;3.24;100.00
7586;BME280;12459;42.646;23.292;2023-03-17T08:31:55;93891.47;;;3.20;100.00
7586;BME280;12459;42.646;23.292;2023-03-17T08:46:57;94002.16;;;4.07;100.00
7586;BME280;12459;42.646;23.292;2023-03-17T09:01:58;94117.78;;;4.93;100.00
7586;BME280;12459;42.646;23.292;2023-03-17T09:17:02;94176.00;;;5.70;100.00
7586;BME280;12459;42.646;23.292;2023-03-17T09:32:06;93830.31;;;3.67;100.00
7586;BME280;12459;42.646;23.292;2023-03-17T10:02:30;94079.75;;;5.57;100.00
7586;BME280;12459;42.646;23.292;2023-03-17T10:17:40;94034.66;;;4.66;100.00
7586;BME280;12459;42.646;23.292;2023-03-17T10:32:42;94164.59;;;6.49;100.00
7586;BME280;12459;42.646;23.292;2023-03-17T10:47:47;93891.06;;;4.71;98.58
7586;BME280;12459;42.646;23.292;2023-03-17T11:02:57;93819.78;;;4.43;97.11
7586;BME280;12459;42.646;23.292;2023-03-17T11:18:02;94115.06;;;6.74;95.91
7586;BME280;12459;42.646;23.292;2023-03-17T11:48:15;94101.94;;;7.36;89.40
7586;BME280;12459;42.646;23.292;2023-03-17T12:34:39;94117.91;;;7.84;87.83
7586;BME280;12459;42.646;23.292;2023-03-17T13:05:14;94075.19;;;8.60;85.78
7586;BME280;12459;42.646;23.292;2023-03-17T13:20:19;93931.94;;;7.12;78.86
7586;BME280;12459;42.646;23.292;2023-03-17T13:36:24;94059.38;;;8.23;77.66
7586;BME280;12459;42.646;23.292;2023-03-17T13:51:32;93948.59;;;7.63;77.91
7586;BME280;12459;42.646;23.292;2023-03-17T14:06:36;93871.19;;;6.73;78.64
7586;BME280;12459;42.646;23.292;2023-03-17T14:21:38;93856.94;;;6.44;79.61
7586;BME280;12459;42.646;23.292;2023-03-17T14:36:41;93734.94;;;5.54;83.07
7586;BME280;12459;42.646;23.292;2023-03-17T14:51:43;93834.75;;;5.48;81.17
7586;BME280;12459;42.646;23.292;2023-03-17T15:06:56;94083.34;;;7.47;82.15
7586;BME280;12459;42.646;23.292;2023-03-17T15:22:04;94105.34;;;7.33;80.74
7586;BME280;12459;42.646;23.292;2023-03-17T15:37:16;94105.88;;;7.09;80.46
7586;BME280;12459;42.646;23.292;2023-03-17T15:52:21;94121.91;;;7.12;79.77
7586;BME280;12459;42.646;23.292;2023-03-17T16:07:26;93879.06;;;4.80;80.08
7586;BME280;12459;42.646;23.292;2023-03-17T16:22:38;94147.25;;;6.62;79.11
7586;BME280;12459;42.646;23.292;2023-03-17T16:37:42;94145.19;;;6.82;80.09
7586;BME280;12459;42.646;23.292;2023-03-17T16:52:45;94151.13;;;6.68;81.98
7586;BME280;12459;42.646;23.292;2023-03-17T17:07:47;93931.78;;;5.08;81.60
7586;BME280;12459;42.646;23.292;2023-03-17T17:22:49;93970.28;;;4.95;80.20
7586;BME280;12459;42.646;23.292;2023-03-17T17:37:52;94164.63;;;6.22;82.32
7586;BME280;12459;42.646;23.292;2023-03-17T17:52:54;93921.75;;;4.45;80.42
7586;BME280;12459;42.646;23.292;2023-03-17T18:08:02;93840.53;;;3.46;83.38
7586;BME280;12459;42.646;23.292;2023-03-17T18:23:05;94084.84;;;4.13;94.96
7586;BME280;12459;42.646;23.292;2023-03-17T18:38:07;93986.56;;;3.44;93.23
7586;BME280;12459;42.646;23.292;2023-03-17T18:53:09;94014.09;;;3.59;95.51
7586;BME280;12459;42.646;23.292;2023-03-17T19:08:10;93866.06;;;2.80;90.90
7586;BME280;12459;42.646;23.292;2023-03-17T19:23:14;94126.28;;;4.79;90.65
7586;BME280;12459;42.646;23.292;2023-03-17T19:38:16;93845.47;;;2.89;90.55
7586;BME280;12459;42.646;23.292;2023-03-17T19:53:18;94180.31;;;5.09;90.93
7586;BME280;12459;42.646;23.292;2023-03-17T20:08:20;93983.59;;;2.79;95.00
7586;BME280;12459;42.646;23.292;2023-03-17T20:23:23;94189.72;;;4.65;94.01
7586;BME280;12459;42.646;23.292;2023-03-17T20:38:25;93813.00;;;1.87;93.36
7586;BME280;12459;42.646;23.292;2023-03-17T20:53:27;94162.78;;;4.43;92.96
7586;BME280;12459;42.646;23.292;2023-03-17T21:08:30;94105.78;;;3.99;94.47
7586;BME280;12459;42.646;23.292;2023-03-17T21:23:32;94069.38;;;2.94;99.60
7586;BME280;12459;42.646;23.292;2023-03-17T21:38:34;93821.31;;;1.26;100.00
7586;BME280;12459;42.646;23.292;2023-03-17T21:53:36;93931.69;;;2.24;97.99
7586;BME280;12459;42.646;23.292;2023-03-17T22:08:38;93691.38;;;0.58;99.99
7586;BME280;12459;42.646;23.292;2023-03-17T22:23:40;94078.34;;;3.05;100.00
7586;BME280;12459;42.646;23.292;2023-03-17T22:38:43;94084.97;;;2.52;100.00
7586;BME280;12459;42.646;23.292;2023-03-17T22:53:46;94107.97;;;2.95;100.00
7586;BME280;12459;42.646;23.292;2023-03-17T23:08:49;94098.50;;;3.10;100.00
7586;BME280;12459;42.646;23.292;2023-03-17T23:23:51;94092.25;;;3.34;100.00
7586;BME280;12459;42.646;23.292;2023-03-17T23:38:53;94114.72;;;3.08;100.00
7586;BME280;12459;42.646;23.292;2023-03-17T23:53:55;93914.94;;;2.04;100.00
